Flight Briefing for CPX304

Departure Arrival
Tokyo-Narita International Airport (RJAA)
Click to view FAA NOTAMS
Guam International Airport (PGUM)
Click to view FAA NOTAMS
Departure Time Arrival Time
N/A N/A
Aircraft Distance
B767-300BDSF 1360nm
Departure METAR Arrival METAR
RJAA 152030Z 30003KT 9999 FEW015 BKN160 01/M02 Q1010 NOSIG RMK 1CU015 7AC160 A2984 PGUM 152054Z 06011KT 10SM CLR 25/23 A3003 RMK AO2 SLP161 T02500228 53015
Suggested Route
CUPID Y820 SUNNS Y820 ADKAK G223 DAGDA A337 NOGAK A337 TEGOD G205 GUYES


View recent IFR Routes data
Notes



Charts and Procedures

Charts for RJAA
No chart available
Charts for PGUM
No chart available

Ventusky Weather